Terminal Aerodrome Forecast
Issued by NWS

Home | Current Version | Previous Version | Text Only | Print | Product List | Glossary On
Versions: 1 2 3 4 5 6 7 8 9 10 11 12 13 14 15 16 17 18 19 20 21 22 23 24 25 26 27 28 29 30 31 32 33
000
FTUS43 KMKX 161124
TAFUES
TAF
KUES 161124Z 1612/1712 13005KT P6SM BKN100
     FM161500 15013G20KT P6SM BKN100
     FM161900 15017G27KT P6SM BKN100
     FM170000 14014G23KT P6SM BKN080
     FM170600 14014G20KT P6SM BKN080=

USA.gov is the U.S. government's official web portal to all federal, state and local government web resources and services.